sensor_id;sensor_type;location;lat;lon;timestamp;temperature;humidity
69823;SHT31;57119;52.516;13.508;2023-06-22T00:01:46;18.37;99.69
69823;SHT31;57119;52.516;13.508;2023-06-22T00:04:12;18.44;99.72
69823;SHT31;57119;52.516;13.508;2023-06-22T00:06:37;18.33;99.94
69823;SHT31;57119;52.516;13.508;2023-06-22T00:09:02;18.33;99.92
69823;SHT31;57119;52.516;13.508;2023-06-22T00:11:28;18.33;99.99
69823;SHT31;57119;52.516;13.508;2023-06-22T00:13:54;18.28;99.99
69823;SHT31;57119;52.516;13.508;2023-06-22T00:16:19;18.25;99.99
69823;SHT31;57119;52.516;13.508;2023-06-22T00:18:44;18.28;99.99
69823;SHT31;57119;52.516;13.508;2023-06-22T00:21:12;18.25;99.99
69823;SHT31;57119;52.516;13.508;2023-06-22T00:23:38;18.20;99.99
69823;SHT31;57119;52.516;13.508;2023-06-22T00:26:03;18.24;99.99
69823;SHT31;57119;52.516;13.508;2023-06-22T00:28:29;18.20;99.99
69823;SHT31;57119;52.516;13.508;2023-06-22T00:30:54;18.11;99.99
69823;SHT31;57119;52.516;13.508;2023-06-22T00:33:20;18.08;99.99
69823;SHT31;57119;52.516;13.508;2023-06-22T00:35:45;18.10;99.99
69823;SHT31;57119;52.516;13.508;2023-06-22T00:38:11;18.04;99.99
69823;SHT31;57119;52.516;13.508;2023-06-22T00:40:37;18.10;99.99
69823;SHT31;57119;52.516;13.508;2023-06-22T00:43:02;18.10;99.99
69823;SHT31;57119;52.516;13.508;2023-06-22T00:45:28;18.00;99.99
69823;SHT31;57119;52.516;13.508;2023-06-22T00:47:56;17.98;99.99
69823;SHT31;57119;52.516;13.508;2023-06-22T00:50:23;17.98;99.99
69823;SHT31;57119;52.516;13.508;2023-06-22T00:52:53;17.93;99.99
69823;SHT31;57119;52.516;13.508;2023-06-22T00:55:20;17.97;99.99
69823;SHT31;57119;52.516;13.508;2023-06-22T00:57:47;17.89;99.99
69823;SHT31;57119;52.516;13.508;2023-06-22T01:00:13;17.89;99.99
69823;SHT31;57119;52.516;13.508;2023-06-22T01:02:39;17.83;99.99
69823;SHT31;57119;52.516;13.508;2023-06-22T01:05:06;17.83;99.99
69823;SHT31;57119;52.516;13.508;2023-06-22T01:07:35;17.86;99.99
69823;SHT31;57119;52.516;13.508;2023-06-22T01:12:52;17.83;99.99
69823;SHT31;57119;52.516;13.508;2023-06-22T01:15:28;17.79;99.99
69823;SHT31;57119;52.516;13.508;2023-06-22T01:17:56;17.82;99.99
69823;SHT31;57119;52.516;13.508;2023-06-22T01:20:24;17.83;99.99
69823;SHT31;57119;52.516;13.508;2023-06-22T01:23:01;17.75;99.99
69823;SHT31;57119;52.516;13.508;2023-06-22T01:25:33;17.72;99.99
69823;SHT31;57119;52.516;13.508;2023-06-22T01:28:23;17.76;99.99
69823;SHT31;57119;52.516;13.508;2023-06-22T01:30:50;17.67;99.99
69823;SHT31;57119;52.516;13.508;2023-06-22T01:33:26;17.73;99.99
69823;SHT31;57119;52.516;13.508;2023-06-22T01:35:51;17.69;99.99
69823;SHT31;57119;52.516;13.508;2023-06-22T01:38:17;17.66;99.99
69823;SHT31;57119;52.516;13.508;2023-06-22T01:40:43;17.72;99.99
69823;SHT31;57119;52.516;13.508;2023-06-22T01:43:08;17.70;99.99
69823;SHT31;57119;52.516;13.508;2023-06-22T01:45:34;17.63;99.99
69823;SHT31;57119;52.516;13.508;2023-06-22T01:48:00;17.66;99.99
69823;SHT31;57119;52.516;13.508;2023-06-22T01:50:25;17.66;99.99
69823;SHT31;57119;52.516;13.508;2023-06-22T01:52:51;17.72;99.99
69823;SHT31;57119;52.516;13.508;2023-06-22T01:55:16;17.70;99.99
69823;SHT31;57119;52.516;13.508;2023-06-22T01:57:42;17.75;99.99
69823;SHT31;57119;52.516;13.508;2023-06-22T02:00:11;17.83;99.99
69823;SHT31;57119;52.516;13.508;2023-06-22T02:02:44;17.90;99.99
69823;SHT31;57119;52.516;13.508;2023-06-22T02:05:15;17.98;99.99
69823;SHT31;57119;52.516;13.508;2023-06-22T02:07:47;18.03;99.99
69823;SHT31;57119;52.516;13.508;2023-06-22T02:10:17;18.08;99.99
69823;SHT31;57119;52.516;13.508;2023-06-22T02:12:44;18.21;99.99
69823;SHT31;57119;52.516;13.508;2023-06-22T02:15:11;18.15;99.99
69823;SHT31;57119;52.516;13.508;2023-06-22T02:17:38;18.14;99.99
69823;SHT31;57119;52.516;13.508;2023-06-22T02:20:03;18.14;99.99
69823;SHT31;57119;52.516;13.508;2023-06-22T02:22:33;18.14;99.99
69823;SHT31;57119;52.516;13.508;2023-06-22T02:24:59;18.14;99.99
69823;SHT31;57119;52.516;13.508;2023-06-22T02:27:25;18.15;99.99
69823;SHT31;57119;52.516;13.508;2023-06-22T02:29:50;18.10;99.99
69823;SHT31;57119;52.516;13.508;2023-06-22T02:32:15;18.14;99.99
69823;SHT31;57119;52.516;13.508;2023-06-22T02:34:43;18.11;99.99
69823;SHT31;57119;52.516;13.508;2023-06-22T02:37:13;18.04;99.99
69823;SHT31;57119;52.516;13.508;2023-06-22T02:39:40;18.01;99.99
69823;SHT31;57119;52.516;13.508;2023-06-22T02:42:05;18.10;99.99
69823;SHT31;57119;52.516;13.508;2023-06-22T02:44:31;18.14;99.99
69823;SHT31;57119;52.516;13.508;2023-06-22T02:46:56;18.25;99.99
69823;SHT31;57119;52.516;13.508;2023-06-22T02:49:21;18.28;99.99
69823;SHT31;57119;52.516;13.508;2023-06-22T02:51:47;18.31;99.99
69823;SHT31;57119;52.516;13.508;2023-06-22T02:54:13;18.35;99.99
69823;SHT31;57119;52.516;13.508;2023-06-22T02:56:38;18.38;99.99
69823;SHT31;57119;52.516;13.508;2023-06-22T02:59:06;18.43;99.99
69823;SHT31;57119;52.516;13.508;2023-06-22T03:01:31;18.48;99.99
69823;SHT31;57119;52.516;13.508;2023-06-22T03:04:03;18.58;99.99
69823;SHT31;57119;52.516;13.508;2023-06-22T03:06:29;18.59;99.99
69823;SHT31;57119;52.516;13.508;2023-06-22T03:08:59;18.59;99.99
69823;SHT31;57119;52.516;13.508;2023-06-22T03:11:25;18.65;99.99
69823;SHT31;57119;52.516;13.508;2023-06-22T03:13:50;18.66;99.99
69823;SHT31;57119;52.516;13.508;2023-06-22T03:16:17;18.65;99.99
69823;SHT31;57119;52.516;13.508;2023-06-22T03:18:43;18.62;99.99
69823;SHT31;57119;52.516;13.508;2023-06-22T03:21:08;18.56;99.99
69823;SHT31;57119;52.516;13.508;2023-06-22T03:23:34;18.52;99.99
69823;SHT31;57119;52.516;13.508;2023-06-22T03:25:59;18.51;99.99
69823;SHT31;57119;52.516;13.508;2023-06-22T03:28:24;18.48;99.99
69823;SHT31;57119;52.516;13.508;2023-06-22T03:30:50;18.45;99.99
69823;SHT31;57119;52.516;13.508;2023-06-22T03:33:15;18.54;99.99
69823;SHT31;57119;52.516;13.508;2023-06-22T03:35:40;18.54;99.58
69823;SHT31;57119;52.516;13.508;2023-06-22T03:38:06;18.65;98.87
69823;SHT31;57119;52.516;13.508;2023-06-22T03:40:31;18.61;98.92
69823;SHT31;57119;52.516;13.508;2023-06-22T03:42:56;18.62;98.29
69823;SHT31;57119;52.516;13.508;2023-06-22T03:45:22;18.68;98.42
69823;SHT31;57119;52.516;13.508;2023-06-22T03:47:47;18.68;97.85
69823;SHT31;57119;52.516;13.508;2023-06-22T03:50:13;18.71;97.35
69823;SHT31;57119;52.516;13.508;2023-06-22T03:52:40;18.75;96.76
69823;SHT31;57119;52.516;13.508;2023-06-22T03:55:06;18.75;96.77
69823;SHT31;57119;52.516;13.508;2023-06-22T03:57:31;18.77;96.50
69823;SHT31;57119;52.516;13.508;2023-06-22T03:59:57;18.93;96.02
69823;SHT31;57119;52.516;13.508;2023-06-22T04:02:23;18.95;95.86
69823;SHT31;57119;52.516;13.508;2023-06-22T04:04:48;19.04;95.11
69823;SHT31;57119;52.516;13.508;2023-06-22T04:07:14;19.07;94.22
69823;SHT31;57119;52.516;13.508;2023-06-22T04:09:39;19.16;94.11
69823;SHT31;57119;52.516;13.508;2023-06-22T04:12:05;19.20;94.31
69823;SHT31;57119;52.516;13.508;2023-06-22T04:14:30;19.24;93.91
69823;SHT31;57119;52.516;13.508;2023-06-22T04:16:58;19.27;93.75
69823;SHT31;57119;52.516;13.508;2023-06-22T04:19:23;19.27;95.36
69823;SHT31;57119;52.516;13.508;2023-06-22T04:21:49;19.28;94.32
69823;SHT31;57119;52.516;13.508;2023-06-22T04:24:14;19.38;93.79
69823;SHT31;57119;52.516;13.508;2023-06-22T04:26:40;19.40;93.00
69823;SHT31;57119;52.516;13.508;2023-06-22T04:29:07;19.44;92.54
69823;SHT31;57119;52.516;13.508;2023-06-22T04:31:34;19.50;93.78
69823;SHT31;57119;52.516;13.508;2023-06-22T04:34:04;19.54;93.26
69823;SHT31;57119;52.516;13.508;2023-06-22T04:36:37;19.65;93.82
69823;SHT31;57119;52.516;13.508;2023-06-22T04:39:06;19.72;93.09
69823;SHT31;57119;52.516;13.508;2023-06-22T04:41:32;19.85;92.25
69823;SHT31;57119;52.516;13.508;2023-06-22T04:44:17;19.88;91.70
69823;SHT31;57119;52.516;13.508;2023-06-22T04:46:53;19.93;92.19
69823;SHT31;57119;52.516;13.508;2023-06-22T04:49:20;20.02;91.16
69823;SHT31;57119;52.516;13.508;2023-06-22T04:51:47;20.15;91.56
69823;SHT31;57119;52.516;13.508;2023-06-22T04:54:12;20.29;91.21
69823;SHT31;57119;52.516;13.508;2023-06-22T04:56:37;20.34;91.01
69823;SHT31;57119;52.516;13.508;2023-06-22T04:59:05;20.41;89.82
69823;SHT31;57119;52.516;13.508;2023-06-22T05:01:31;20.51;90.15
69823;SHT31;57119;52.516;13.508;2023-06-22T05:03:57;20.57;89.93
69823;SHT31;57119;52.516;13.508;2023-06-22T05:06:23;20.75;89.77
69823;SHT31;57119;52.516;13.508;2023-06-22T05:08:56;20.87;89.36
69823;SHT31;57119;52.516;13.508;2023-06-22T05:11:25;20.94;89.07
69823;SHT31;57119;52.516;13.508;2023-06-22T05:13:50;21.19;88.81
69823;SHT31;57119;52.516;13.508;2023-06-22T05:16:16;21.28;87.49
69823;SHT31;57119;52.516;13.508;2023-06-22T05:18:41;21.43;87.80
69823;SHT31;57119;52.516;13.508;2023-06-22T05:21:07;21.36;87.89
69823;SHT31;57119;52.516;13.508;2023-06-22T05:23:32;21.66;87.11
69823;SHT31;57119;52.516;13.508;2023-06-22T05:25:57;21.57;86.73
69823;SHT31;57119;52.516;13.508;2023-06-22T05:28:23;21.69;86.81
69823;SHT31;57119;52.516;13.508;2023-06-22T05:30:48;21.66;87.27
69823;SHT31;57119;52.516;13.508;2023-06-22T05:33:14;21.76;87.33
69823;SHT31;57119;52.516;13.508;2023-06-22T05:35:39;21.73;85.83
69823;SHT31;57119;52.516;13.508;2023-06-22T05:38:05;21.74;85.81
69823;SHT31;57119;52.516;13.508;2023-06-22T05:40:30;21.73;85.62
69823;SHT31;57119;52.516;13.508;2023-06-22T05:42:55;22.05;85.56
69823;SHT31;57119;52.516;13.508;2023-06-22T05:45:21;22.01;85.26
69823;SHT31;57119;52.516;13.508;2023-06-22T05:47:46;21.86;85.06
69823;SHT31;57119;52.516;13.508;2023-06-22T05:50:11;22.31;84.54
69823;SHT31;57119;52.516;13.508;2023-06-22T05:52:37;22.14;83.92
69823;SHT31;57119;52.516;13.508;2023-06-22T05:55:02;22.53;84.32
69823;SHT31;57119;52.516;13.508;2023-06-22T05:57:28;22.73;83.22
69823;SHT31;57119;52.516;13.508;2023-06-22T05:59:53;22.96;82.96
69823;SHT31;57119;52.516;13.508;2023-06-22T06:02:19;22.77;83.12
69823;SHT31;57119;52.516;13.508;2023-06-22T06:04:44;22.75;82.96
69823;SHT31;57119;52.516;13.508;2023-06-22T06:07:10;23.04;82.50
69823;SHT31;57119;52.516;13.508;2023-06-22T06:09:35;23.10;82.64
69823;SHT31;57119;52.516;13.508;2023-06-22T06:12:01;23.06;81.53
69823;SHT31;57119;52.516;13.508;2023-06-22T06:14:28;23.25;81.99
69823;SHT31;57119;52.516;13.508;2023-06-22T06:16:53;23.08;81.03
69823;SHT31;57119;52.516;13.508;2023-06-22T06:19:19;22.90;81.34
69823;SHT31;57119;52.516;13.508;2023-06-22T06:21:44;23.02;81.64
69823;SHT31;57119;52.516;13.508;2023-06-22T06:24:11;23.57;80.02
69823;SHT31;57119;52.516;13.508;2023-06-22T06:26:37;23.62;79.09
69823;SHT31;57119;52.516;13.508;2023-06-22T06:29:02;23.83;79.76
69823;SHT31;57119;52.516;13.508;2023-06-22T06:31:28;24.05;79.75
69823;SHT31;57119;52.516;13.508;2023-06-22T06:33:54;23.95;79.23
69823;SHT31;57119;52.516;13.508;2023-06-22T06:36:20;24.12;78.22
69823;SHT31;57119;52.516;13.508;2023-06-22T06:38:46;24.20;77.85
69823;SHT31;57119;52.516;13.508;2023-06-22T06:41:16;24.23;77.81
69823;SHT31;57119;52.516;13.508;2023-06-22T06:43:41;23.95;78.06
69823;SHT31;57119;52.516;13.508;2023-06-22T06:46:10;24.34;76.93
69823;SHT31;57119;52.516;13.508;2023-06-22T06:48:36;24.82;76.33
69823;SHT31;57119;52.516;13.508;2023-06-22T06:51:02;25.12;75.37
69823;SHT31;57119;52.516;13.508;2023-06-22T06:53:27;25.23;75.95
69823;SHT31;57119;52.516;13.508;2023-06-22T06:55:53;24.65;75.38
69823;SHT31;57119;52.516;13.508;2023-06-22T06:58:19;25.18;74.87
69823;SHT31;57119;52.516;13.508;2023-06-22T07:00:44;25.74;74.00
69823;SHT31;57119;52.516;13.508;2023-06-22T07:03:10;25.84;72.42
69823;SHT31;57119;52.516;13.508;2023-06-22T07:05:35;26.21;71.73
69823;SHT31;57119;52.516;13.508;2023-06-22T07:08:01;25.94;70.83
69823;SHT31;57119;52.516;13.508;2023-06-22T07:10:26;26.31;71.08
69823;SHT31;57119;52.516;13.508;2023-06-22T07:12:52;26.17;70.98
69823;SHT31;57119;52.516;13.508;2023-06-22T07:15:17;26.00;70.91
69823;SHT31;57119;52.516;13.508;2023-06-22T07:17:43;25.62;70.87
69823;SHT31;57119;52.516;13.508;2023-06-22T07:20:09;26.12;70.62
69823;SHT31;57119;52.516;13.508;2023-06-22T07:22:36;26.43;70.06
69823;SHT31;57119;52.516;13.508;2023-06-22T07:25:01;26.42;68.46
69823;SHT31;57119;52.516;13.508;2023-06-22T07:27:30;26.49;67.95
69823;SHT31;57119;52.516;13.508;2023-06-22T07:30:01;27.08;68.55
69823;SHT31;57119;52.516;13.508;2023-06-22T07:32:26;26.64;68.66
69823;SHT31;57119;52.516;13.508;2023-06-22T07:34:53;26.52;68.78
69823;SHT31;57119;52.516;13.508;2023-06-22T07:37:19;27.21;69.13
69823;SHT31;57119;52.516;13.508;2023-06-22T07:39:44;27.69;68.05
69823;SHT31;57119;52.516;13.508;2023-06-22T07:42:09;27.39;66.40
69823;SHT31;57119;52.516;13.508;2023-06-22T07:44:35;26.90;65.79
69823;SHT31;57119;52.516;13.508;2023-06-22T07:47:00;27.26;65.00
69823;SHT31;57119;52.516;13.508;2023-06-22T07:49:27;27.76;62.51
69823;SHT31;57119;52.516;13.508;2023-06-22T07:51:53;27.79;61.61
69823;SHT31;57119;52.516;13.508;2023-06-22T07:54:18;27.76;61.61
69823;SHT31;57119;52.516;13.508;2023-06-22T07:56:44;26.89;63.34
69823;SHT31;57119;52.516;13.508;2023-06-22T07:59:11;27.12;62.88
69823;SHT31;57119;52.516;13.508;2023-06-22T08:01:36;27.04;63.59
69823;SHT31;57119;52.516;13.508;2023-06-22T08:04:01;26.63;64.68
69823;SHT31;57119;52.516;13.508;2023-06-22T08:06:29;26.89;64.72
69823;SHT31;57119;52.516;13.508;2023-06-22T08:08:55;27.76;65.31
69823;SHT31;57119;52.516;13.508;2023-06-22T08:11:22;26.69;65.44
69823;SHT31;57119;52.516;13.508;2023-06-22T08:13:49;27.14;65.48
69823;SHT31;57119;52.516;13.508;2023-06-22T08:16:14;27.04;64.88
69823;SHT31;57119;52.516;13.508;2023-06-22T08:18:40;27.55;63.84
69823;SHT31;57119;52.516;13.508;2023-06-22T08:21:05;26.82;64.46
69823;SHT31;57119;52.516;13.508;2023-06-22T08:23:31;27.04;63.80
69823;SHT31;57119;52.516;13.508;2023-06-22T08:25:56;26.69;63.56
69823;SHT31;57119;52.516;13.508;2023-06-22T08:28:22;27.11;64.47
69823;SHT31;57119;52.516;13.508;2023-06-22T08:30:47;26.49;65.31
69823;SHT31;57119;52.516;13.508;2023-06-22T08:33:12;27.17;64.66
69823;SHT31;57119;52.516;13.508;2023-06-22T08:35:38;27.38;63.10
69823;SHT31;57119;52.516;13.508;2023-06-22T08:38:03;27.08;63.92
69823;SHT31;57119;52.516;13.508;2023-06-22T08:40:29;27.41;64.46
69823;SHT31;57119;52.516;13.508;2023-06-22T08:42:54;27.42;64.15
69823;SHT31;57119;52.516;13.508;2023-06-22T08:45:20;27.75;64.06
69823;SHT31;57119;52.516;13.508;2023-06-22T08:47:45;28.00;63.96
69823;SHT31;57119;52.516;13.508;2023-06-22T08:50:11;27.99;63.20
69823;SHT31;57119;52.516;13.508;2023-06-22T08:52:37;28.48;62.21
69823;SHT31;57119;52.516;13.508;2023-06-22T08:55:04;28.71;62.79
69823;SHT31;57119;52.516;13.508;2023-06-22T08:57:29;28.74;61.68
69823;SHT31;57119;52.516;13.508;2023-06-22T08:59:56;28.75;61.51
69823;SHT31;57119;52.516;13.508;2023-06-22T09:02:26;28.48;60.57
69823;SHT31;57119;52.516;13.508;2023-06-22T09:04:56;28.68;61.78
69823;SHT31;57119;52.516;13.508;2023-06-22T09:07:23;29.60;59.53
69823;SHT31;57119;52.516;13.508;2023-06-22T09:09:50;30.15;58.15
69823;SHT31;57119;52.516;13.508;2023-06-22T09:12:15;30.43;55.81
69823;SHT31;57119;52.516;13.508;2023-06-22T09:14:41;31.83;57.47
69823;SHT31;57119;52.516;13.508;2023-06-22T09:17:06;30.72;55.69
69823;SHT31;57119;52.516;13.508;2023-06-22T09:19:32;31.12;56.46
69823;SHT31;57119;52.516;13.508;2023-06-22T09:21:58;31.12;57.08
69823;SHT31;57119;52.516;13.508;2023-06-22T09:24:23;31.39;57.50
69823;SHT31;57119;52.516;13.508;2023-06-22T09:26:48;30.91;58.47
69823;SHT31;57119;52.516;13.508;2023-06-22T09:29:14;30.66;57.94
69823;SHT31;57119;52.516;13.508;2023-06-22T09:31:39;29.63;58.74
69823;SHT31;57119;52.516;13.508;2023-06-22T09:34:05;29.58;57.56
69823;SHT31;57119;52.516;13.508;2023-06-22T09:36:30;30.55;56.14
69823;SHT31;57119;52.516;13.508;2023-06-22T09:38:55;29.56;58.86
69823;SHT31;57119;52.516;13.508;2023-06-22T09:41:23;29.58;57.76
69823;SHT31;57119;52.516;13.508;2023-06-22T09:43:49;29.36;55.97
69823;SHT31;57119;52.516;13.508;2023-06-22T09:46:17;29.81;55.42
69823;SHT31;57119;52.516;13.508;2023-06-22T09:48:43;29.60;55.89
69823;SHT31;57119;52.516;13.508;2023-06-22T09:51:08;29.45;56.71
69823;SHT31;57119;52.516;13.508;2023-06-22T09:53:34;29.29;56.55
69823;SHT31;57119;52.516;13.508;2023-06-22T09:56:03;29.29;57.52
69823;SHT31;57119;52.516;13.508;2023-06-22T09:58:29;30.56;55.20
69823;SHT31;57119;52.516;13.508;2023-06-22T10:00:54;31.38;54.20
69823;SHT31;57119;52.516;13.508;2023-06-22T10:03:20;31.78;54.48
69823;SHT31;57119;52.516;13.508;2023-06-22T10:05:46;31.97;54.92
69823;SHT31;57119;52.516;13.508;2023-06-22T10:08:11;30.45;54.76
69823;SHT31;57119;52.516;13.508;2023-06-22T10:10:37;30.90;56.97
69823;SHT31;57119;52.516;13.508;2023-06-22T10:13:08;32.34;56.06
69823;SHT31;57119;52.516;13.508;2023-06-22T10:15:37;32.79;54.31
69823;SHT31;57119;52.516;13.508;2023-06-22T10:18:03;32.24;54.96
69823;SHT31;57119;52.516;13.508;2023-06-22T10:20:28;33.78;54.60
69823;SHT31;57119;52.516;13.508;2023-06-22T10:22:54;32.98;52.22
69823;SHT31;57119;52.516;13.508;2023-06-22T10:25:19;33.51;53.37
69823;SHT31;57119;52.516;13.508;2023-06-22T10:27:45;33.90;54.01
69823;SHT31;57119;52.516;13.508;2023-06-22T10:30:11;32.99;52.48
69823;SHT31;57119;52.516;13.508;2023-06-22T10:32:38;33.18;54.15
69823;SHT31;57119;52.516;13.508;2023-06-22T10:35:04;33.96;51.98
69823;SHT31;57119;52.516;13.508;2023-06-22T10:37:30;34.34;51.84
69823;SHT31;57119;52.516;13.508;2023-06-22T10:39:55;33.22;53.04
69823;SHT31;57119;52.516;13.508;2023-06-22T10:42:20;32.95;52.87
69823;SHT31;57119;52.516;13.508;2023-06-22T10:44:46;33.43;53.06
69823;SHT31;57119;52.516;13.508;2023-06-22T10:47:11;33.36;52.09
69823;SHT31;57119;52.516;13.508;2023-06-22T10:49:41;35.01;51.29
69823;SHT31;57119;52.516;13.508;2023-06-22T10:52:07;33.68;51.69
69823;SHT31;57119;52.516;13.508;2023-06-22T10:54:33;33.94;50.68
69823;SHT31;57119;52.516;13.508;2023-06-22T10:56:59;34.35;50.52
69823;SHT31;57119;52.516;13.508;2023-06-22T10:59:25;35.33;50.22
69823;SHT31;57119;52.516;13.508;2023-06-22T11:01:51;35.57;48.18
69823;SHT31;57119;52.516;13.508;2023-06-22T11:04:17;37.33;48.51
69823;SHT31;57119;52.516;13.508;2023-06-22T11:06:43;34.96;48.50
69823;SHT31;57119;52.516;13.508;2023-06-22T11:09:08;36.64;47.44
69823;SHT31;57119;52.516;13.508;2023-06-22T11:11:34;34.66;48.85
69823;SHT31;57119;52.516;13.508;2023-06-22T11:13:59;36.71;48.20
69823;SHT31;57119;52.516;13.508;2023-06-22T11:16:25;37.01;45.81
69823;SHT31;57119;52.516;13.508;2023-06-22T11:18:50;35.23;49.04
69823;SHT31;57119;52.516;13.508;2023-06-22T11:21:16;35.17;47.13
69823;SHT31;57119;52.516;13.508;2023-06-22T11:23:41;35.57;47.18
69823;SHT31;57119;52.516;13.508;2023-06-22T11:26:07;33.11;50.43
69823;SHT31;57119;52.516;13.508;2023-06-22T11:28:32;32.76;50.60
69823;SHT31;57119;52.516;13.508;2023-06-22T11:30:58;33.82;49.10
69823;SHT31;57119;52.516;13.508;2023-06-22T11:33:24;33.13;50.90
69823;SHT31;57119;52.516;13.508;2023-06-22T11:35:49;34.73;48.52
69823;SHT31;57119;52.516;13.508;2023-06-22T11:38:15;35.58;47.07
69823;SHT31;57119;52.516;13.508;2023-06-22T11:40:40;37.11;48.27
69823;SHT31;57119;52.516;13.508;2023-06-22T11:43:06;36.29;46.58
69823;SHT31;57119;52.516;13.508;2023-06-22T11:45:31;36.09;47.21
69823;SHT31;57119;52.516;13.508;2023-06-22T11:47:56;36.99;47.83
69823;SHT31;57119;52.516;13.508;2023-06-22T11:50:22;37.76;46.78
69823;SHT31;57119;52.516;13.508;2023-06-22T11:52:47;38.58;45.06
69823;SHT31;57119;52.516;13.508;2023-06-22T11:55:13;37.33;46.11
69823;SHT31;57119;52.516;13.508;2023-06-22T11:57:51;36.67;48.39
69823;SHT31;57119;52.516;13.508;2023-06-22T12:00:17;36.17;47.88
69823;SHT31;57119;52.516;13.508;2023-06-22T12:02:43;35.14;47.84
69823;SHT31;57119;52.516;13.508;2023-06-22T12:05:10;35.33;47.96
69823;SHT31;57119;52.516;13.508;2023-06-22T12:07:36;37.17;46.80
69823;SHT31;57119;52.516;13.508;2023-06-22T12:10:02;37.39;45.80
69823;SHT31;57119;52.516;13.508;2023-06-22T12:12:27;37.78;46.79
69823;SHT31;57119;52.516;13.508;2023-06-22T12:14:52;36.68;46.02
69823;SHT31;57119;52.516;13.508;2023-06-22T12:17:18;33.51;48.84
69823;SHT31;57119;52.516;13.508;2023-06-22T12:19:43;31.90;51.19
69823;SHT31;57119;52.516;13.508;2023-06-22T12:22:08;32.55;51.63
69823;SHT31;57119;52.516;13.508;2023-06-22T12:24:34;33.63;49.70
69823;SHT31;57119;52.516;13.508;2023-06-22T12:26:59;35.28;47.69
69823;SHT31;57119;52.516;13.508;2023-06-22T12:29:24;34.93;48.71
69823;SHT31;57119;52.516;13.508;2023-06-22T12:31:50;32.99;49.66
69823;SHT31;57119;52.516;13.508;2023-06-22T12:34:15;35.00;48.10
69823;SHT31;57119;52.516;13.508;2023-06-22T12:36:41;36.39;46.19
69823;SHT31;57119;52.516;13.508;2023-06-22T12:39:06;37.32;46.76
69823;SHT31;57119;52.516;13.508;2023-06-22T12:41:32;35.69;47.94
69823;SHT31;57119;52.516;13.508;2023-06-22T12:43:57;35.08;48.64
69823;SHT31;57119;52.516;13.508;2023-06-22T12:46:23;35.48;48.83
69823;SHT31;57119;52.516;13.508;2023-06-22T12:48:48;34.28;51.06
69823;SHT31;57119;52.516;13.508;2023-06-22T12:51:20;35.48;49.57
69823;SHT31;57119;52.516;13.508;2023-06-22T12:53:46;35.88;49.93
69823;SHT31;57119;52.516;13.508;2023-06-22T12:56:11;35.54;49.45
69823;SHT31;57119;52.516;13.508;2023-06-22T12:58:36;35.33;49.07
69823;SHT31;57119;52.516;13.508;2023-06-22T13:01:02;34.66;48.52
69823;SHT31;57119;52.516;13.508;2023-06-22T13:03:27;34.14;49.74
69823;SHT31;57119;52.516;13.508;2023-06-22T13:05:53;34.66;50.00
69823;SHT31;57119;52.516;13.508;2023-06-22T13:08:18;34.76;50.89
69823;SHT31;57119;52.516;13.508;2023-06-22T13:10:44;32.79;52.02
69823;SHT31;57119;52.516;13.508;2023-06-22T13:13:09;32.84;51.51
69823;SHT31;57119;52.516;13.508;2023-06-22T13:15:34;34.31;51.27
69823;SHT31;57119;52.516;13.508;2023-06-22T13:18:00;33.81;50.40
69823;SHT31;57119;52.516;13.508;2023-06-22T13:20:25;35.20;49.66
69823;SHT31;57119;52.516;13.508;2023-06-22T13:22:50;37.01;48.48
69823;SHT31;57119;52.516;13.508;2023-06-22T13:25:17;36.07;47.57
69823;SHT31;57119;52.516;13.508;2023-06-22T13:27:45;38.17;46.92
69823;SHT31;57119;52.516;13.508;2023-06-22T13:30:10;38.20;45.26
69823;SHT31;57119;52.516;13.508;2023-06-22T13:32:36;37.30;47.25
69823;SHT31;57119;52.516;13.508;2023-06-22T13:35:01;37.70;46.17
69823;SHT31;57119;52.516;13.508;2023-06-22T13:37:26;37.74;46.22
69823;SHT31;57119;52.516;13.508;2023-06-22T13:39:52;38.80;44.21
69823;SHT31;57119;52.516;13.508;2023-06-22T13:42:18;38.56;43.74
69823;SHT31;57119;52.516;13.508;2023-06-22T13:44:43;39.26;44.55
69823;SHT31;57119;52.516;13.508;2023-06-22T13:47:09;35.31;48.05
69823;SHT31;57119;52.516;13.508;2023-06-22T13:49:34;35.86;46.97
69823;SHT31;57119;52.516;13.508;2023-06-22T13:52:00;37.03;46.95
69823;SHT31;57119;52.516;13.508;2023-06-22T13:54:25;37.45;45.03
69823;SHT31;57119;52.516;13.508;2023-06-22T13:56:50;38.69;44.47
69823;SHT31;57119;52.516;13.508;2023-06-22T13:59:16;38.54;45.08
69823;SHT31;57119;52.516;13.508;2023-06-22T14:01:41;38.11;45.14
69823;SHT31;57119;52.516;13.508;2023-06-22T14:04:08;37.32;45.79
69823;SHT31;57119;52.516;13.508;2023-06-22T14:06:33;38.75;44.77
69823;SHT31;57119;52.516;13.508;2023-06-22T14:08:59;39.71;45.52
69823;SHT31;57119;52.516;13.508;2023-06-22T14:11:25;38.32;44.31
69823;SHT31;57119;52.516;13.508;2023-06-22T14:13:50;37.83;44.73
69823;SHT31;57119;52.516;13.508;2023-06-22T14:16:15;38.78;44.93
69823;SHT31;57119;52.516;13.508;2023-06-22T14:18:41;39.26;45.10
69823;SHT31;57119;52.516;13.508;2023-06-22T14:21:07;36.19;46.13
69823;SHT31;57119;52.516;13.508;2023-06-22T14:23:32;38.61;45.64
69823;SHT31;57119;52.516;13.508;2023-06-22T14:25:58;37.94;45.50
69823;SHT31;57119;52.516;13.508;2023-06-22T14:28:23;38.90;45.32
69823;SHT31;57119;52.516;13.508;2023-06-22T14:30:48;39.29;45.87
69823;SHT31;57119;52.516;13.508;2023-06-22T14:33:14;38.00;45.01
69823;SHT31;57119;52.516;13.508;2023-06-22T14:35:39;36.10;47.46
69823;SHT31;57119;52.516;13.508;2023-06-22T14:38:04;36.15;48.56
69823;SHT31;57119;52.516;13.508;2023-06-22T14:40:30;35.77;47.14
69823;SHT31;57119;52.516;13.508;2023-06-22T14:42:55;36.68;48.15
69823;SHT31;57119;52.516;13.508;2023-06-22T14:45:23;36.30;47.26
69823;SHT31;57119;52.516;13.508;2023-06-22T14:47:48;37.02;46.19
69823;SHT31;57119;52.516;13.508;2023-06-22T14:50:14;38.39;47.11
69823;SHT31;57119;52.516;13.508;2023-06-22T14:52:39;37.94;45.93
69823;SHT31;57119;52.516;13.508;2023-06-22T14:55:05;36.60;45.83
69823;SHT31;57119;52.516;13.508;2023-06-22T14:57:31;37.86;47.12
69823;SHT31;57119;52.516;13.508;2023-06-22T14:59:56;38.24;46.50
69823;SHT31;57119;52.516;13.508;2023-06-22T15:02:21;37.22;45.43
69823;SHT31;57119;52.516;13.508;2023-06-22T15:04:47;37.62;47.08
69823;SHT31;57119;52.516;13.508;2023-06-22T15:07:14;35.41;47.87
69823;SHT31;57119;52.516;13.508;2023-06-22T15:09:39;34.22;49.42
69823;SHT31;57119;52.516;13.508;2023-06-22T15:12:07;36.82;48.50